createdAt,value
2019-03-04T00:01:26.551Z,94846.38
2019-03-04T00:03:57.440Z,94832.05
2019-03-04T00:06:48.728Z,94834.98
2019-03-04T00:09:19.850Z,94831.27
2019-03-04T00:11:52.312Z,94830.46
2019-03-04T00:14:29.149Z,94833.58
2019-03-04T00:17:06.787Z,94842.89
2019-03-04T00:19:37.677Z,94837.29
2019-03-04T00:22:18.783Z,94833.05
2019-03-04T00:24:49.643Z,94832.23
2019-03-04T00:27:23.385Z,94825.84
2019-03-04T00:29:54.314Z,94827.13
2019-03-04T00:32:25.314Z,94832.96
2019-03-04T00:34:56.184Z,94831.16
2019-03-04T00:37:27.070Z,94827.39
2019-03-04T00:39:58.430Z,94813.52
2019-03-04T00:42:29.301Z,94814.25
2019-03-04T00:45:00.293Z,94809.99
2019-03-04T00:47:31.212Z,94803.66
2019-03-04T00:50:02.062Z,94795.11
2019-03-04T00:52:32.961Z,94789.47
2019-03-04T00:55:05.391Z,94780.72
2019-03-04T00:57:36.240Z,94756.20
2019-03-04T01:00:08.939Z,94740.51
2019-03-04T01:02:39.830Z,94752.33
2019-03-04T01:05:10.724Z,94752.34
2019-03-04T01:07:41.611Z,94750.13
2019-03-04T01:10:13.976Z,94757.58
2019-03-04T01:12:45.882Z,94751.24
2019-03-04T01:15:18.372Z,94743.78
2019-03-04T01:17:49.210Z,94749.45
2019-03-04T01:20:21.535Z,94739.81
2019-03-04T01:22:52.385Z,94731.80
2019-03-04T01:25:23.274Z,94722.30
2019-03-04T01:27:54.161Z,94729.05
2019-03-04T01:30:25.155Z,94730.17
2019-03-04T01:32:57.228Z,94712.28
2019-03-04T01:35:28.076Z,94722.66
2019-03-04T01:37:59.034Z,94722.19
2019-03-04T01:40:30.993Z,94745.36
2019-03-04T01:43:01.898Z,94723.73
2019-03-04T01:45:32.841Z,94735.23
2019-03-04T01:48:03.882Z,94734.98
2019-03-04T01:50:34.774Z,94724.42
2019-03-04T01:53:05.637Z,94724.14
2019-03-04T01:55:36.530Z,94718.75
2019-03-04T01:58:07.418Z,94721.16
2019-03-04T02:00:38.272Z,94713.73
2019-03-04T02:03:10.437Z,94702.78
2019-03-04T02:05:41.361Z,94708.09
2019-03-04T02:08:12.547Z,94697.27
2019-03-04T02:10:43.445Z,94703.21
2019-03-04T02:13:14.323Z,94702.22
2019-03-04T02:15:45.143Z,94697.06
2019-03-04T02:18:16.153Z,94689.02
2019-03-04T02:20:47.258Z,94680.39
2019-03-04T02:23:18.147Z,94666.98
2019-03-04T02:26:28.737Z,94660.55
2019-03-04T02:28:59.655Z,94652.49
2019-03-04T02:31:30.517Z,94627.68
2019-03-04T02:34:01.391Z,94616.86
2019-03-04T02:36:32.311Z,94592.88
2019-03-04T02:39:04.478Z,94578.20
2019-03-04T02:41:36.909Z,94581.33
2019-03-04T02:44:08.111Z,94581.77
2019-03-04T02:46:39.009Z,94590.58
2019-03-04T02:49:09.888Z,94579.97
2019-03-04T02:51:40.809Z,94573.66
2019-03-04T02:54:11.733Z,94570.84
2019-03-04T02:56:42.622Z,94580.17
2019-03-04T02:59:13.427Z,94582.99
2019-03-04T03:01:44.224Z,94579.59
2019-03-04T03:04:15.065Z,94584.64
2019-03-04T03:06:50.205Z,94580.86
2019-03-04T03:09:21.564Z,94583.91
2019-03-04T03:11:52.535Z,94582.92
2019-03-04T03:14:23.454Z,94592.14
2019-03-04T03:16:54.335Z,94595.05
2019-03-04T03:19:25.180Z,94611.59
2019-03-04T03:21:56.057Z,94597.70
2019-03-04T03:24:26.897Z,94604.94
2019-03-04T03:26:57.769Z,94605.22
2019-03-04T03:29:28.997Z,94592.69
2019-03-04T03:31:59.860Z,94594.83
2019-03-04T03:34:30.755Z,94595.89
2019-03-04T03:37:02.908Z,94592.69
2019-03-04T03:39:33.769Z,94592.66
2019-03-04T03:42:07.725Z,94580.69
2019-03-04T03:44:38.632Z,94569.44
2019-03-04T03:47:10.402Z,94569.25
2019-03-04T03:49:41.429Z,94560.83
2019-03-04T03:52:12.497Z,94546.95
2019-03-04T03:54:43.438Z,94546.66
2019-03-04T03:57:14.318Z,94547.63
2019-03-04T03:59:45.175Z,94527.36
2019-03-04T04:02:16.045Z,94522.59
2019-03-04T04:04:46.934Z,94526.02
2019-03-04T04:07:18.285Z,94503.67
2019-03-04T04:09:49.512Z,94500.52
2019-03-04T04:12:20.439Z,94492.81
2019-03-04T04:14:51.352Z,94490.72
2019-03-04T04:17:22.234Z,94478.86
2019-03-04T04:19:53.232Z,94479.41
2019-03-04T04:22:24.334Z,94479.03
2019-03-04T04:24:55.238Z,94457.23
2019-03-04T04:27:26.146Z,94451.52
2019-03-04T04:30:00.403Z,94461.90
2019-03-04T04:32:32.025Z,94450.08
2019-03-04T04:35:03.195Z,94449.06
2019-03-04T04:37:34.059Z,94449.54
2019-03-04T04:40:05.612Z,94450.20
2019-03-04T04:42:36.468Z,94453.37
2019-03-04T04:45:10.091Z,94451.78
2019-03-04T04:47:40.948Z,94450.06
2019-03-04T04:50:12.953Z,94452.55
2019-03-04T04:52:43.816Z,94441.30
2019-03-04T04:55:14.665Z,94440.25
2019-03-04T04:57:45.495Z,94437.04
2019-03-04T05:00:17.892Z,94439.49
2019-03-04T05:02:48.823Z,94445.55
2019-03-04T05:05:19.820Z,94452.22
2019-03-04T05:07:50.755Z,94434.33
2019-03-04T05:10:21.628Z,94446.45
2019-03-04T05:12:52.512Z,94440.61
2019-03-04T05:15:23.395Z,94429.86
2019-03-04T05:17:54.249Z,94439.42
2019-03-04T05:20:25.109Z,94435.16
2019-03-04T05:22:56.726Z,94421.53
2019-03-04T05:25:27.584Z,94401.77
2019-03-04T05:27:58.419Z,94390.77
2019-03-04T05:30:29.313Z,94372.41
2019-03-04T05:33:00.265Z,94369.48
2019-03-04T05:35:31.152Z,94364.44
2019-03-04T05:38:02.104Z,94369.23
2019-03-04T05:40:35.387Z,94353.02
2019-03-04T05:43:06.264Z,94361.72
2019-03-04T05:45:39.141Z,94354.02
2019-03-04T05:48:15.866Z,94339.33
2019-03-04T05:50:46.777Z,94335.88
2019-03-04T05:53:17.646Z,94352.61
2019-03-04T05:55:48.524Z,94344.22
2019-03-04T05:58:20.415Z,94349.35
2019-03-04T06:01:12.123Z,94346.19
2019-03-04T06:03:43.125Z,94351.27
2019-03-04T06:06:14.243Z,94351.98
2019-03-04T06:08:45.003Z,94349.48
2019-03-04T06:11:15.833Z,94351.39
2019-03-04T06:13:46.625Z,94363.20
2019-03-04T06:16:17.512Z,94358.36
2019-03-04T06:18:48.388Z,94356.08
2019-03-04T06:21:19.589Z,94346.39
2019-03-04T06:23:50.471Z,94334.39
2019-03-04T06:26:26.416Z,94317.58
2019-03-04T06:28:57.321Z,94319.91
2019-03-04T06:31:28.182Z,94317.06
2019-03-04T06:34:00.710Z,94324.02
2019-03-04T06:36:35.911Z,94300.83
2019-03-04T06:39:09.023Z,94285.30
2019-03-04T06:41:40.383Z,94276.73
2019-03-04T06:44:11.209Z,94281.70
2019-03-04T06:46:42.101Z,94276.11
2019-03-04T06:49:12.981Z,94280.12
2019-03-04T06:51:48.663Z,94270.22
2019-03-04T06:54:52.060Z,94271.09
2019-03-04T06:57:28.427Z,94251.05
2019-03-04T07:00:23.221Z,94254.52
2019-03-04T07:02:56.851Z,94260.16
2019-03-04T07:05:51.009Z,94258.69
2019-03-04T07:09:12.124Z,94254.08
2019-03-04T07:11:52.792Z,94254.98
2019-03-04T07:14:23.634Z,94254.48
2019-03-04T07:17:01.139Z,94252.14
2019-03-04T07:19:35.974Z,94240.79
2019-03-04T07:22:11.340Z,94212.58
2019-03-04T07:24:42.607Z,94206.81
2019-03-04T07:27:13.910Z,94185.20
2019-03-04T07:29:44.828Z,94134.53
2019-03-04T07:32:18.057Z,94121.02
2019-03-04T07:34:59.128Z,94134.23
2019-03-04T07:37:31.523Z,94150.84
2019-03-04T07:40:04.693Z,94144.08
2019-03-04T07:42:42.075Z,94124.02
2019-03-04T07:45:15.067Z,94109.53
2019-03-04T07:47:48.912Z,94090.80
2019-03-04T07:50:19.869Z,94083.02
2019-03-04T07:52:57.765Z,94077.25
2019-03-04T07:55:30.034Z,94076.01
2019-03-04T07:58:07.451Z,94077.73
2019-03-04T08:00:38.359Z,94074.98
2019-03-04T08:03:09.264Z,94065.67
2019-03-04T08:05:40.484Z,94062.38
2019-03-04T08:08:11.391Z,94045.03
2019-03-04T08:11:18.786Z,94044.15
2019-03-04T08:17:04.044Z,94024.04
2019-03-04T08:19:34.931Z,94019.58
2019-03-04T08:22:07.074Z,94019.34
2019-03-04T08:24:38.282Z,94016.90
2019-03-04T08:27:09.287Z,94013.44
2019-03-04T08:29:40.474Z,94004.03
2019-03-04T08:32:13.437Z,94014.38
2019-03-04T08:34:44.321Z,94000.30
2019-03-04T08:37:19.457Z,94001.13
2019-03-04T08:39:50.821Z,94000.98
2019-03-04T08:42:24.190Z,94007.33
2019-03-04T08:44:58.241Z,94002.27
2019-03-04T08:47:29.365Z,94007.86
2019-03-04T08:50:03.077Z,94000.33
2019-03-04T08:52:34.358Z,93993.44
2019-03-04T08:55:05.577Z,93994.89
2019-03-04T08:57:36.493Z,93987.28
2019-03-04T09:00:14.021Z,93983.99
2019-03-04T09:02:46.206Z,93983.07
2019-03-04T09:05:17.142Z,94005.12
2019-03-04T09:07:48.389Z,94003.05
2019-03-04T09:10:24.292Z,94006.69
2019-03-04T09:12:55.168Z,94016.74
2019-03-04T09:15:33.415Z,94043.43
2019-03-04T09:18:06.754Z,94031.07
2019-03-04T09:20:40.748Z,94041.66
2019-03-04T09:23:11.626Z,94034.99
2019-03-04T09:25:51.796Z,94020.88
2019-03-04T09:28:27.454Z,94028.90
2019-03-04T09:31:00.148Z,94016.75
2019-03-04T09:33:32.231Z,94030.98
2019-03-04T09:36:13.870Z,94032.97
2019-03-04T09:38:47.851Z,94064.55
2019-03-04T09:41:19.334Z,94071.04
2019-03-04T09:43:50.191Z,94089.88
2019-03-04T09:46:29.979Z,94113.33
2019-03-04T09:49:03.317Z,94093.11
2019-03-04T09:51:44.269Z,94134.20
2019-03-04T09:54:18.281Z,94138.29
2019-03-04T09:56:53.756Z,94099.67
2019-03-04T09:59:24.633Z,94103.27
2019-03-04T10:02:06.560Z,94095.18
2019-03-04T10:05:22.924Z,94085.68
2019-03-04T10:08:32.863Z,94049.61
2019-03-04T10:11:49.267Z,94057.29
2019-03-04T10:15:10.247Z,94036.44
2019-03-04T10:18:19.843Z,94015.63
2019-03-04T10:21:25.238Z,94014.84
2019-03-04T10:24:14.771Z,93986.79
2019-03-04T10:27:28.643Z,93982.81
2019-03-04T10:30:47.399Z,93991.79
2019-03-04T10:34:08.794Z,93983.78
2019-03-04T10:37:24.776Z,93997.81
2019-03-04T10:40:31.091Z,93992.19
2019-03-04T10:43:40.412Z,93965.08
2019-03-04T10:47:17.847Z,93990.14
2019-03-04T10:49:49.511Z,93981.39
2019-03-04T10:52:20.585Z,93983.12
2019-03-04T10:54:55.451Z,93975.98
2019-03-04T10:57:32.682Z,93971.85
2019-03-04T11:00:05.672Z,93944.88
2019-03-04T11:02:38.562Z,93967.14
2019-03-04T11:05:38.570Z,93974.42
2019-03-04T11:08:38.927Z,93954.16
2019-03-04T11:11:29.421Z,93952.22
2019-03-04T11:13:54.767Z,93951.36
2019-03-04T11:16:35.909Z,93960.12
2019-03-04T11:19:08.051Z,93999.92
2019-03-04T11:21:54.065Z,93976.54
2019-03-04T11:24:43.503Z,94007.05
2019-03-04T11:27:21.869Z,93966.05
2019-03-04T11:29:58.917Z,93971.23
2019-03-04T11:32:35.149Z,93970.05
2019-03-04T11:35:09.278Z,93960.74
2019-03-04T11:37:45.156Z,93977.56
2019-03-04T11:40:34.301Z,93991.33
2019-03-04T11:43:05.670Z,93986.23
2019-03-04T11:45:44.320Z,93964.33
2019-03-04T11:48:55.948Z,93977.05
2019-03-04T11:51:33.852Z,93975.91
2019-03-04T11:54:13.526Z,93955.45
2019-03-04T11:56:50.321Z,93977.09
2019-03-04T11:59:25.013Z,93964.55
2019-03-04T12:02:08.681Z,93981.38
2019-03-04T12:04:42.100Z,93966.14
2019-03-04T12:07:22.778Z,94006.48
2019-03-04T12:09:58.860Z,93976.92
2019-03-04T12:12:29.779Z,93976.05
2019-03-04T12:15:02.861Z,93964.45
2019-03-04T12:17:41.392Z,93971.77
2019-03-04T12:20:17.890Z,93969.58
2019-03-04T12:22:55.332Z,93968.06
2019-03-04T12:25:43.743Z,93969.95
2019-03-04T12:28:12.676Z,93961.03
2019-03-04T12:30:51.776Z,93991.96
2019-03-04T12:33:47.577Z,93984.63
2019-03-04T12:36:18.394Z,93977.59
2019-03-04T12:39:09.415Z,93999.16
2019-03-04T12:41:46.176Z,93992.89
2019-03-04T12:44:21.324Z,93967.75
2019-03-04T12:47:34.137Z,93949.74
2019-03-04T12:50:10.410Z,93955.73
2019-03-04T12:52:49.090Z,93969.83
2019-03-04T12:55:35.061Z,93952.42
2019-03-04T13:02:11.006Z,93947.30
2019-03-04T13:05:11.168Z,93943.17
2019-03-04T13:08:00.911Z,93952.31
2019-03-04T13:10:35.181Z,93938.13
2019-03-04T13:13:14.725Z,93946.28
2019-03-04T13:16:03.066Z,93942.81
2019-03-04T13:18:45.097Z,93950.53
2019-03-04T13:21:23.595Z,93944.16
2019-03-04T13:24:11.697Z,93946.07
2019-03-04T13:26:51.528Z,93951.50
2019-03-04T13:29:33.912Z,93960.16
2019-03-04T13:32:07.204Z,93957.36
2019-03-04T13:34:42.976Z,93959.88
2019-03-04T13:37:23.222Z,93955.56
2019-03-04T13:39:58.084Z,93979.48
2019-03-04T13:42:33.633Z,93977.98
2019-03-04T13:45:12.952Z,93983.69
2019-03-04T13:48:02.821Z,93964.55
2019-03-04T13:50:47.113Z,93964.02
2019-03-04T13:53:31.188Z,93970.09
2019-03-04T13:56:01.687Z,93955.91
2019-03-04T13:58:43.329Z,93954.20
2019-03-04T14:01:18.534Z,93943.09
2019-03-04T14:03:54.790Z,93970.31
2019-03-04T14:06:37.818Z,93974.73
2019-03-04T14:09:15.267Z,93969.15
2019-03-04T14:11:53.880Z,93963.56
2019-03-04T14:14:29.294Z,93965.69
2019-03-04T14:17:05.918Z,93973.70
2019-03-04T14:19:44.430Z,93967.16
2019-03-04T14:22:18.219Z,93952.62
2019-03-04T14:24:57.709Z,93954.83
2019-03-04T14:27:25.136Z,93949.06
2019-03-04T14:30:03.418Z,93964.31
2019-03-04T14:32:44.936Z,93960.50
2019-03-04T14:35:19.315Z,93960.19
2019-03-04T14:37:58.351Z,93960.25
2019-03-04T14:40:41.243Z,93975.25
2019-03-04T14:43:17.204Z,93970.80
2019-03-04T14:45:54.370Z,93943.66
2019-03-04T14:48:32.015Z,93938.92
2019-03-04T14:51:25.485Z,93953.72
2019-03-04T14:53:56.599Z,93946.25
2019-03-04T14:56:27.556Z,93945.28
2019-03-04T14:59:28.629Z,93948.57
2019-03-04T15:02:02.437Z,93950.23
2019-03-04T15:04:35.966Z,93951.70
2019-03-04T15:07:14.553Z,93947.06
2019-03-04T15:09:52.353Z,93944.39
2019-03-04T15:12:28.763Z,93943.52
2019-03-04T15:15:05.358Z,93936.70
2019-03-04T15:17:39.444Z,93933.44
2019-03-04T15:20:16.183Z,93941.16
2019-03-04T15:22:47.287Z,93926.84
2019-03-04T15:25:25.256Z,93907.66
2019-03-04T15:28:08.826Z,93897.86
2019-03-04T15:30:45.043Z,93908.19
2019-03-04T15:33:18.809Z,93889.24
2019-03-04T15:35:52.020Z,93897.97
2019-03-04T15:38:24.755Z,93905.72
2019-03-04T15:40:55.633Z,93913.61
2019-03-04T15:43:27.679Z,93934.82
2019-03-04T15:46:00.111Z,93943.50
2019-03-04T15:48:30.980Z,93952.75
2019-03-04T15:51:01.822Z,93984.05
2019-03-04T15:53:35.363Z,93994.98
2019-03-04T15:56:06.288Z,93991.48
2019-03-04T15:58:38.022Z,93997.45
2019-03-04T16:01:13.601Z,93999.39
2019-03-04T16:03:49.754Z,94007.17
2019-03-04T16:06:24.924Z,94007.01
2019-03-04T16:08:55.913Z,94021.68
2019-03-04T16:11:27.534Z,94026.26
2019-03-04T16:13:59.895Z,94027.55
2019-03-04T16:16:30.737Z,94022.14
2019-03-04T16:19:01.555Z,94012.69
2019-03-04T16:21:32.512Z,94013.82
2019-03-04T16:24:03.597Z,94011.77
2019-03-04T16:26:38.969Z,94003.87
2019-03-04T16:29:10.201Z,94010.35
2019-03-04T16:31:51.267Z,94010.69
2019-03-04T16:34:23.959Z,94015.22
2019-03-04T16:36:56.389Z,94006.98
2019-03-04T16:39:32.857Z,94017.63
2019-03-04T16:42:08.642Z,94021.34
2019-03-04T16:44:40.120Z,94005.41
2019-03-04T16:47:12.251Z,94032.82
2019-03-04T16:49:45.594Z,94038.09
2019-03-04T16:52:18.599Z,94071.50
2019-03-04T16:54:49.551Z,94091.80
2019-03-04T16:57:20.817Z,94090.64
2019-03-04T16:59:51.657Z,94112.25
2019-03-04T17:02:28.574Z,94094.84
2019-03-04T17:04:59.476Z,94115.88
2019-03-04T17:07:36.162Z,94100.58
2019-03-04T17:10:25.913Z,94104.80
2019-03-04T17:13:04.165Z,94098.97
2019-03-04T17:15:47.289Z,94087.25
2019-03-04T17:18:24.205Z,94081.69
2019-03-04T17:20:56.660Z,94097.09
2019-03-04T17:23:34.856Z,94106.89
2019-03-04T17:26:07.135Z,94093.02
2019-03-04T17:28:41.149Z,94083.88
2019-03-04T17:31:39.361Z,94097.03
2019-03-04T17:34:16.615Z,94081.63
2019-03-04T17:36:48.940Z,94092.77
2019-03-04T17:39:21.694Z,94095.16
2019-03-04T17:41:52.677Z,94086.34
2019-03-04T17:44:27.345Z,94100.06
2019-03-04T17:47:03.711Z,94101.11
2019-03-04T17:49:37.383Z,94105.32
2019-03-04T17:52:12.741Z,94106.28
2019-03-04T17:54:51.267Z,94107.23
2019-03-04T17:57:24.818Z,94102.16
2019-03-04T18:00:00.343Z,94099.66
2019-03-04T18:02:32.932Z,94103.61
2019-03-04T18:05:06.671Z,94100.00
2019-03-04T18:07:38.015Z,94109.62
2019-03-04T18:10:11.597Z,94108.85
2019-03-04T18:12:42.469Z,94118.22
2019-03-04T18:15:19.527Z,94142.72
2019-03-04T18:17:53.112Z,94153.44
2019-03-04T18:20:33.990Z,94177.58
2019-03-04T18:23:03.476Z,94189.91
2019-03-04T18:25:46.125Z,94199.76
2019-03-04T18:28:57.288Z,94204.98
2019-03-04T18:31:42.427Z,94211.97
2019-03-04T18:34:54.507Z,94225.56
2019-03-04T18:38:02.837Z,94237.88
2019-03-04T18:41:16.168Z,94248.84
2019-03-04T18:44:28.405Z,94237.86
2019-03-04T18:47:33.948Z,94252.77
2019-03-04T18:50:05.403Z,94265.77
2019-03-04T18:52:36.595Z,94274.00
2019-03-04T18:55:24.687Z,94283.27
2019-03-04T18:57:57.526Z,94307.36
2019-03-04T19:01:08.921Z,94309.77
2019-03-04T19:03:41.831Z,94312.16
2019-03-04T19:06:13.492Z,94316.92
2019-03-04T19:08:53.261Z,94321.41
2019-03-04T19:11:53.635Z,94334.12
2019-03-04T19:14:27.745Z,94348.41
2019-03-04T19:16:59.422Z,94359.50
2019-03-04T19:19:33.454Z,94361.59
2019-03-04T19:22:14.231Z,94371.39
2019-03-04T19:24:44.944Z,94380.64
2019-03-04T19:27:16.157Z,94381.17
2019-03-04T19:29:54.217Z,94386.69
2019-03-04T19:33:07.795Z,94397.50
2019-03-04T19:35:39.383Z,94405.91
2019-03-04T19:38:19.755Z,94415.41
2019-03-04T19:41:06.806Z,94408.00
2019-03-04T19:43:44.607Z,94419.86
2019-03-04T19:46:27.125Z,94432.54
2019-03-04T19:49:18.382Z,94424.83
2019-03-04T19:51:52.646Z,94433.78
2019-03-04T19:54:25.526Z,94452.23
2019-03-04T19:57:13.014Z,94456.20
2019-03-04T19:59:47.637Z,94464.66
2019-03-04T20:02:21.001Z,94467.63
2019-03-04T20:04:54.516Z,94476.03
2019-03-04T20:07:29.273Z,94485.78
2019-03-04T20:10:04.223Z,94488.39
2019-03-04T20:12:47.407Z,94493.11
2019-03-04T20:15:26.061Z,94498.91
2019-03-04T20:17:57.200Z,94503.65
2019-03-04T20:20:29.729Z,94511.27
2019-03-04T20:23:02.076Z,94510.42
2019-03-04T20:25:36.295Z,94515.39
2019-03-04T20:28:07.251Z,94517.55
2019-03-04T20:30:43.118Z,94519.39
2019-03-04T20:33:15.456Z,94530.96
2019-03-04T20:35:47.516Z,94534.09
2019-03-04T20:38:19.955Z,94540.17
2019-03-04T20:40:54.183Z,94545.70
2019-03-04T20:43:28.434Z,94547.78
2019-03-04T20:46:05.705Z,94550.39
2019-03-04T20:48:41.192Z,94556.23
2019-03-04T20:51:13.575Z,94554.69
2019-03-04T20:53:45.278Z,94543.33
2019-03-04T20:56:23.964Z,94547.88
2019-03-04T20:58:55.041Z,94552.63
2019-03-04T21:01:33.984Z,94554.69
2019-03-04T21:04:05.282Z,94555.73
2019-03-04T21:06:37.867Z,94564.48
2019-03-04T21:09:13.938Z,94559.69
2019-03-04T21:11:45.418Z,94564.66
2019-03-04T21:14:17.011Z,94567.03
2019-03-04T21:16:50.170Z,94567.27
2019-03-04T21:19:23.627Z,94574.45
2019-03-04T21:21:54.865Z,94571.58
2019-03-04T21:24:26.105Z,94572.09
2019-03-04T21:27:04.930Z,94570.59
2019-03-04T21:30:27.395Z,94572.19
2019-03-04T21:33:08.613Z,94578.82
2019-03-04T21:36:36.791Z,94580.20
2019-03-04T21:39:08.215Z,94581.80
2019-03-04T21:42:11.517Z,94582.13
2019-03-04T21:45:11.401Z,94585.02
2019-03-04T21:47:50.069Z,94577.13
2019-03-04T21:50:25.565Z,94586.37
2019-03-04T21:53:23.061Z,94595.64
2019-03-04T21:56:02.811Z,94596.72
2019-03-04T21:58:40.743Z,94604.67
2019-03-04T22:01:20.631Z,94607.03
2019-03-04T22:03:53.385Z,94605.95
2019-03-04T22:06:24.882Z,94614.16
2019-03-04T22:09:01.918Z,94614.71
2019-03-04T22:11:37.477Z,94626.32
2019-03-04T22:14:12.874Z,94627.64
2019-03-04T22:16:44.591Z,94631.67
2019-03-04T22:19:19.964Z,94635.11
2019-03-04T22:21:56.256Z,94635.37
2019-03-04T22:24:27.469Z,94641.47
2019-03-04T22:27:01.348Z,94652.83
2019-03-04T22:29:35.040Z,94639.34
2019-03-04T22:32:09.291Z,94651.97
2019-03-04T22:34:44.338Z,94659.68
2019-03-04T22:37:19.196Z,94665.80
2019-03-04T22:39:52.793Z,94656.33
2019-03-04T22:42:34.985Z,94664.29
2019-03-04T22:45:10.026Z,94662.47
2019-03-04T22:47:40.891Z,94654.02
2019-03-04T22:50:15.893Z,94661.18
2019-03-04T22:52:47.939Z,94660.10
2019-03-04T22:55:24.404Z,94664.34
2019-03-04T22:57:57.107Z,94663.83
2019-03-04T23:01:23.581Z,94678.88
2019-03-04T23:04:05.632Z,94677.28
2019-03-04T23:06:36.783Z,94673.29
2019-03-04T23:09:09.807Z,94668.77
2019-03-04T23:11:46.277Z,94673.81
2019-03-04T23:14:40.881Z,94670.38
2019-03-04T23:17:06.958Z,94668.50
2019-03-04T23:19:40.753Z,94680.60
2019-03-04T23:22:11.666Z,94685.83
2019-03-04T23:24:45.608Z,94690.55
2019-03-04T23:27:16.490Z,94692.42
2019-03-04T23:29:47.402Z,94694.23
2019-03-04T23:32:18.264Z,94696.33
2019-03-04T23:34:49.785Z,94688.70
2019-03-04T23:37:20.674Z,94684.50
2019-03-04T23:39:51.553Z,94695.00
2019-03-04T23:42:27.627Z,94691.31
2019-03-04T23:44:58.492Z,94698.23
2019-03-04T23:47:29.491Z,94697.19
2019-03-04T23:50:18.200Z,94699.24
2019-03-04T23:52:49.040Z,94701.33
2019-03-04T23:55:19.914Z,94693.20
2019-03-04T23:57:54.912Z,94705.88
